Terminal Aerodrome Forecast
Issued by NWS Paducah, KY

Home | Current Version | Previous Version | Text Only | Print | Product List | Glossary On
Versions: 1 2 3 4 5 6 7 8 9 10 11 12 13 14 15 16 17 18 19 20 21 22 23
000
FTUS43 KPAH 151700
TAFEVV
TAF
KEVV 151723Z 1518/1618 15010KT 3SM -SHRA BR SCT005 OVC015
      TEMPO 1518/1521 1SM SHRA BR OVC005
     FM152100 16010KT 6SM BR OVC005
      TEMPO 1521/1523 3SM -SHRA BR SCT005 BKN015
     FM160500 21008KT P6SM SCT015 BKN030
     FM160800 25008KT P6SM BKN015
     FM161500 26012G20KT P6SM BKN020=

USA.gov is the U.S. government's official web portal to all federal, state and local government web resources and services.